Time;durP1;ratioP1;P1;durP2;ratioP2;P2;SDS_P1;SDS_P2;PMS_P1;PMS_P2;Temp;Humidity;BMP_temperature;BMP_pressure;BME280_temperature;BME280_humidity;BME280_pressure;Samples;Min_cycle;Max_cycle;Signal;HPM_P1;HPM_P2
2023/02/28 00:00:48;;;;;;;1.42;0.60;;;16.00;68.40;;;;;;4993511;28;20089;-67
2023/02/28 00:03:14;;;;;;;1.48;0.40;;;16.00;69.50;;;;;;4993618;28;20389;-67
2023/02/28 00:05:41;;;;;;;1.48;0.50;;;16.00;68.40;;;;;;4994411;28;20535;-67
2023/02/28 00:08:07;;;;;;;0.63;0.32;;;16.00;68.40;;;;;;4994222;28;20033;-67
2023/02/28 00:10:33;;;;;;;1.08;0.40;;;16.00;68.30;;;;;;4993425;28;20041;-67
2023/02/28 00:13:04;;;;;;;0.43;0.30;;;16.00;68.30;;;;;;4993305;28;20018;-67
2023/02/28 00:15:29;;;;;;;1.45;0.40;;;16.00;68.30;;;;;;4993293;28;20030;-67
2023/02/28 00:17:55;;;;;;;1.02;0.47;;;16.00;68.30;;;;;;4993287;28;20432;-67
2023/02/28 00:20:20;;;;;;;0.70;0.35;;;16.00;68.20;;;;;;4993985;28;20695;-67
2023/02/28 00:22:50;;;;;;;1.13;0.40;;;16.00;68.20;;;;;;4992984;28;20048;-67
2023/02/28 00:25:18;;;;;;;1.05;0.40;;;16.00;68.20;;;;;;4993091;28;20025;-67
2023/02/28 00:27:44;;;;;;;1.98;0.50;;;16.00;68.20;;;;;;4994319;28;20027;-67
2023/02/28 00:30:12;;;;;;;1.38;0.43;;;16.00;68.20;;;;;;4992883;28;20045;-67
2023/02/28 00:32:37;;;;;;;0.40;0.40;;;16.00;68.10;;;;;;4992922;28;20084;-67
2023/02/28 00:35:03;;;;;;;0.93;0.40;;;16.00;68.10;;;;;;4992656;28;20078;-67
2023/02/28 00:37:29;;;;;;;0.30;0.20;;;16.00;68.00;;;;;;4993935;28;20045;-67
2023/02/28 00:39:55;;;;;;;1.48;0.40;;;16.00;68.10;;;;;;4993827;28;20459;-67
2023/02/28 00:42:21;;;;;;;1.75;0.40;;;16.00;68.00;;;;;;4993965;28;20543;-67
2023/02/28 00:44:46;;;;;;;0.25;0.25;;;16.00;68.10;;;;;;4993857;28;20440;-67
2023/02/28 00:47:12;;;;;;;0.98;0.40;;;16.00;68.10;;;;;;4993649;28;20030;-67
2023/02/28 00:49:37;;;;;;;1.05;0.30;;;16.00;68.10;;;;;;4993724;28;20397;-67
2023/02/28 00:52:03;;;;;;;0.45;0.32;;;16.00;68.00;;;;;;4993646;28;20038;-67
2023/02/28 00:54:29;;;;;;;1.15;0.47;;;16.00;68.00;;;;;;4993931;28;20042;-67
2023/02/28 00:56:55;;;;;;;1.27;0.40;;;16.00;67.90;;;;;;4993518;28;20023;-67
2023/02/28 00:59:21;;;;;;;1.20;0.40;;;16.00;68.00;;;;;;4993503;28;20022;-67
2023/02/28 01:01:47;;;;;;;0.73;0.40;;;16.00;67.90;;;;;;4993664;28;20114;-67
2023/02/28 01:04:13;;;;;;;0.98;0.35;;;16.00;67.90;;;;;;4992158;28;20034;-67
2023/02/28 01:06:38;;;;;;;2.38;0.52;;;16.00;67.80;;;;;;4992374;28;20105;-67
2023/02/28 01:09:04;;;;;;;1.83;0.43;;;16.00;67.90;;;;;;4993346;28;20457;-67
2023/02/28 01:11:30;;;;;;;1.75;0.35;;;16.00;67.80;;;;;;4992205;28;20037;-67
2023/02/28 01:13:56;;;;;;;0.13;0.10;;;16.00;67.90;;;;;;4993360;28;20045;-68
2023/02/28 01:16:22;;;;;;;1.38;0.40;;;16.00;67.80;;;;;;4992183;28;20485;-67
2023/02/28 01:18:47;;;;;;;0.73;0.30;;;16.00;67.70;;;;;;4991508;28;20038;-67
2023/02/28 01:21:15;;;;;;;1.88;0.40;;;16.00;67.80;;;;;;4992889;28;20065;-67
2023/02/28 01:23:40;;;;;;;0.50;0.30;;;16.00;67.80;;;;;;4992372;28;20022;-67
2023/02/28 01:26:24;;;;;;;0.82;0.30;;;16.00;67.70;;;;;;4993172;28;20141;-67
2023/02/28 01:28:51;;;;;;;0.88;0.60;;;16.00;67.70;;;;;;4992121;28;20027;-67
2023/02/28 01:31:17;;;;;;;0.45;0.20;;;16.00;67.70;;;;;;4992042;28;20018;-67
2023/02/28 01:33:43;;;;;;;0.40;0.20;;;16.00;67.70;;;;;;4991674;28;20034;-67
2023/02/28 01:36:11;;;;;;;0.88;0.40;;;16.00;67.70;;;;;;4993029;28;20029;-67
2023/02/28 01:38:36;;;;;;;0.65;0.28;;;16.00;67.60;;;;;;4991962;28;20037;-67
2023/02/28 01:41:02;;;;;;;0.95;0.30;;;16.00;67.60;;;;;;4993075;28;20030;-67
2023/02/28 01:43:29;;;;;;;1.30;0.40;;;16.00;67.60;;;;;;4991922;28;20069;-67
2023/02/28 01:45:56;;;;;;;0.47;0.30;;;16.00;67.50;;;;;;4993036;28;20026;-67
2023/02/28 01:48:33;;;;;;;1.08;0.30;;;15.90;67.50;;;;;;4991558;28;20101;-67
2023/02/28 01:51:01;;;;;;;0.68;0.35;;;16.00;67.60;;;;;;4991844;28;20579;-67
2023/02/28 01:53:38;;;;;;;0.50;0.25;;;15.90;67.50;;;;;;4991864;28;20022;-67
2023/02/28 01:56:06;;;;;;;0.75;0.50;;;15.90;67.50;;;;;;4991619;28;20084;-67
2023/02/28 01:58:32;;;;;;;1.13;0.30;;;16.00;67.50;;;;;;4991793;28;20030;-67
2023/02/28 02:00:58;;;;;;;1.45;0.50;;;16.00;67.50;;;;;;4991251;28;20444;-67
2023/02/28 02:03:24;;;;;;;0.77;0.47;;;15.90;67.40;;;;;;4991723;28;20022;-67
2023/02/28 02:05:49;;;;;;;0.47;0.25;;;15.90;67.40;;;;;;4992926;28;20029;-67
2023/02/28 02:08:18;;;;;;;1.13;0.45;;;15.90;67.40;;;;;;4991497;28;20023;-67
2023/02/28 02:11:00;;;;;;;2.17;0.43;;;16.00;67.40;;;;;;4991646;28;20025;-67
2023/02/28 02:13:46;;;;;;;0.45;0.25;;;15.90;67.30;;;;;;4991609;28;20114;-67
2023/02/28 02:16:23;;;;;;;1.00;0.40;;;16.00;67.40;;;;;;4992453;28;20437;-67
2023/02/28 02:18:57;;;;;;;1.10;0.45;;;15.90;67.30;;;;;;4991617;28;20105;-67
2023/02/28 02:21:48;;;;;;;0.55;0.40;;;15.90;67.20;;;;;;4991052;28;20050;-67
2023/02/28 02:25:01;;;;;;;0.40;0.20;;;15.90;67.20;;;;;;4992553;28;20416;-67
2023/02/28 02:27:33;;;;;;;0.50;0.30;;;15.90;67.20;;;;;;4992277;28;20046;-67
2023/02/28 02:30:21;;;;;;;0.98;0.40;;;15.90;67.30;;;;;;4991256;28;20049;-67
2023/02/28 02:33:14;;;;;;;1.30;0.40;;;15.90;67.20;;;;;;4995211;28;20319;-67
2023/02/28 02:36:11;;;;;;;0.88;0.40;;;15.90;67.20;;;;;;4996381;28;20019;-67
2023/02/28 02:38:58;;;;;;;1.25;0.40;;;15.90;67.20;;;;;;4995044;28;20026;-67
2023/02/28 02:41:47;;;;;;;0.95;0.40;;;15.90;67.20;;;;;;4994938;28;20485;-67
2023/02/28 02:44:27;;;;;;;0.17;0.13;;;15.90;67.10;;;;;;4994688;28;20037;-67
2023/02/28 02:47:03;;;;;;;1.38;0.32;;;15.90;67.10;;;;;;4994953;28;20378;-67
2023/02/28 02:49:31;;;;;;;0.30;0.20;;;15.90;67.10;;;;;;4994907;28;20398;-67
2023/02/28 02:51:57;;;;;;;0.80;0.40;;;15.90;67.10;;;;;;4994684;28;20099;-67
2023/02/28 02:54:28;;;;;;;1.65;0.28;;;15.90;67.10;;;;;;4994940;28;20061;-67
2023/02/28 02:56:54;;;;;;;1.25;0.43;;;15.90;67.00;;;;;;4994792;28;20061;-67
2023/02/28 02:59:21;;;;;;;1.20;0.40;;;15.90;67.00;;;;;;4994331;28;20038;-67
2023/02/28 03:01:50;;;;;;;1.58;0.52;;;15.90;67.10;;;;;;4994571;28;20424;-67
2023/02/28 03:04:20;;;;;;;0.30;0.25;;;15.90;67.10;;;;;;4994639;28;20105;-67
2023/02/28 03:06:45;;;;;;;0.17;0.17;;;15.90;67.00;;;;;;4994690;28;20019;-67
2023/02/28 03:09:11;;;;;;;0.32;0.30;;;15.90;67.00;;;;;;4995632;28;20030;-67
2023/02/28 03:11:37;;;;;;;0.63;0.35;;;15.90;67.00;;;;;;4995680;28;20033;-67
2023/02/28 03:14:27;;;;;;;1.63;0.50;;;15.90;67.00;;;;;;4994179;28;20489;-67
2023/02/28 03:17:05;;;;;;;1.02;0.40;;;15.90;67.00;;;;;;4995617;28;20023;-67
2023/02/28 03:19:37;;;;;;;0.52;0.40;;;15.90;66.90;;;;;;4995417;28;20038;-67
2023/02/28 03:22:05;;;;;;;0.73;0.47;;;15.90;66.90;;;;;;4993879;28;20134;-67
2023/02/28 03:24:31;;;;;;;0.30;0.30;;;15.90;67.00;;;;;;4995502;28;20117;-67
2023/02/28 03:27:24;;;;;;;0.95;0.40;;;15.90;67.00;;;;;;4995428;28;20097;-67
2023/02/28 03:30:12;;;;;;;1.70;0.30;;;15.90;66.80;;;;;;5029229;28;20068;-67
2023/02/28 03:32:47;;;;;;;0.95;0.28;;;15.90;66.90;;;;;;5011288;28;20037;-67
2023/02/28 03:35:21;;;;;;;1.33;0.32;;;15.90;66.90;;;;;;5028915;28;20038;-67
2023/02/28 03:37:48;;;;;;;0.85;0.43;;;15.90;66.90;;;;;;5012470;28;20038;-67
2023/02/28 03:40:21;;;;;;;0.45;0.25;;;15.90;66.80;;;;;;5028969;28;20034;-67
2023/02/28 03:42:48;;;;;;;0.32;0.22;;;15.90;66.90;;;;;;5011701;28;20030;-67
2023/02/28 03:45:19;;;;;;;1.50;0.38;;;15.90;66.80;;;;;;5012260;28;20023;-67
2023/02/28 03:47:50;;;;;;;1.30;0.50;;;15.90;66.80;;;;;;5011943;28;20108;-67
2023/02/28 03:50:23;;;;;;;0.90;0.47;;;15.90;66.80;;;;;;5028517;28;20053;-67
2023/02/28 03:52:53;;;;;;;;;;;15.90;66.80;;;;;;5029217;28;20026;-67
2023/02/28 03:55:19;;;;;;;0.77;0.40;;;15.90;66.70;;;;;;5028678;28;20375;-67
2023/02/28 03:58:15;;;;;;;0.70;0.30;;;15.90;67.20;;;;;;5011920;28;20034;-67
2023/02/28 04:00:45;;;;;;;1.20;0.52;;;15.90;66.80;;;;;;5021630;28;20046;-67
2023/02/28 04:03:11;;;;;;;0.35;0.30;;;15.90;66.80;;;;;;4996127;28;20496;-67
2023/02/28 04:05:46;;;;;;;0.90;0.35;;;15.90;66.80;;;;;;4992545;28;20036;-67
2023/02/28 04:08:12;;;;;;;0.22;0.20;;;15.90;66.80;;;;;;4990201;28;20019;-67
2023/02/28 04:10:37;;;;;;;1.17;0.90;;;15.90;66.80;;;;;;4975091;28;20124;-67
2023/02/28 04:13:03;;;;;;;0.75;0.40;;;15.90;66.70;;;;;;4989862;28;20029;-67
2023/02/28 04:15:29;;;;;;;0.50;0.40;;;15.90;66.70;;;;;;4974899;28;20130;-67
2023/02/28 04:17:54;;;;;;;3.35;0.50;;;15.90;66.70;;;;;;4975009;28;20023;-67
2023/02/28 04:20:20;;;;;;;0.57;0.40;;;15.90;66.70;;;;;;4974776;28;20034;-67
2023/02/28 04:22:45;;;;;;;1.50;0.47;;;15.80;66.60;;;;;;4974737;28;20047;-67
2023/02/28 04:25:11;;;;;;;1.15;0.30;;;15.90;66.70;;;;;;4974893;28;20030;-67
2023/02/28 04:27:37;;;;;;;1.70;0.45;;;15.90;66.70;;;;;;4974751;28;20026;-67
2023/02/28 04:30:03;;;;;;;1.13;0.40;;;15.80;66.60;;;;;;4973467;28;20030;-67
2023/02/28 04:32:28;;;;;;;0.30;0.30;;;15.90;66.70;;;;;;4973494;28;20027;-67
2023/02/28 04:34:54;;;;;;;0.65;0.30;;;15.80;66.60;;;;;;4974579;28;20039;-67
2023/02/28 04:37:20;;;;;;;0.73;0.60;;;15.80;66.60;;;;;;4974656;28;20030;-67
2023/02/28 04:39:45;;;;;;;1.02;0.35;;;15.90;66.70;;;;;;4973507;28;20030;-67
2023/02/28 04:42:11;;;;;;;0.77;0.50;;;15.80;66.60;;;;;;4974254;28;20027;-67
2023/02/28 04:44:37;;;;;;;0.75;0.60;;;15.90;66.70;;;;;;4973214;28;20035;-67
2023/02/28 04:47:02;;;;;;;0.52;0.30;;;15.90;66.70;;;;;;4974543;28;20029;-67
2023/02/28 04:49:28;;;;;;;1.27;0.57;;;15.80;66.60;;;;;;4974436;28;20030;-67
2023/02/28 04:51:53;;;;;;;1.27;0.40;;;15.90;66.70;;;;;;4973301;28;20026;-67
2023/02/28 04:54:19;;;;;;;0.65;0.40;;;15.80;66.60;;;;;;4972257;28;20486;-67
2023/02/28 04:56:45;;;;;;;1.23;0.50;;;15.90;66.70;;;;;;4973014;28;20477;-67
2023/02/28 04:59:10;;;;;;;1.30;0.50;;;15.80;66.60;;;;;;4973142;28;20023;-67
2023/02/28 05:01:36;;;;;;;0.47;0.32;;;15.90;66.70;;;;;;4991256;28;20034;-67
2023/02/28 05:04:03;;;;;;;0.68;0.50;;;15.80;66.60;;;;;;4993726;28;20076;-67
2023/02/28 05:06:30;;;;;;;0.68;0.50;;;15.80;66.60;;;;;;4993376;28;20524;-67
2023/02/28 05:08:56;;;;;;;0.82;0.52;;;15.80;66.60;;;;;;4993631;28;20095;-67
2023/02/28 05:11:35;;;;;;;0.82;0.50;;;15.80;66.60;;;;;;4992069;28;20022;-67
2023/02/28 05:14:02;;;;;;;1.63;0.52;;;15.80;66.50;;;;;;4992188;28;20396;-67
2023/02/28 05:16:28;;;;;;;0.63;0.57;;;15.80;67.60;;;;;;4993382;28;20022;-67
2023/02/28 05:18:54;;;;;;;0.82;0.50;;;15.80;66.60;;;;;;4993382;28;20109;-67
2023/02/28 05:21:35;;;;;;;0.63;0.50;;;15.80;66.50;;;;;;4992914;28;20089;-67
2023/02/28 05:24:06;;;;;;;1.25;0.45;;;15.80;66.50;;;;;;4993136;28;20086;-67
2023/02/28 05:26:34;;;;;;;0.40;0.40;;;15.80;66.50;;;;;;4991864;28;20033;-67
2023/02/28 05:29:00;;;;;;;1.85;0.60;;;15.80;66.50;;;;;;4993280;28;20030;-67
2023/02/28 05:31:25;;;;;;;0.63;0.50;;;15.80;66.50;;;;;;4993034;28;20030;-67
2023/02/28 05:33:51;;;;;;;3.08;0.80;;;15.80;66.40;;;;;;4993260;28;20034;-67
2023/02/28 05:36:17;;;;;;;0.50;0.43;;;15.90;66.50;;;;;;4991919;28;20069;-67
2023/02/28 05:38:42;;;;;;;0.95;0.60;;;15.80;66.40;;;;;;4992807;28;20026;-67
2023/02/28 05:41:09;;;;;;;1.20;0.75;;;15.80;67.50;;;;;;4993064;28;20592;-67
2023/02/28 05:43:35;;;;;;;0.55;0.43;;;15.80;67.40;;;;;;4991857;28;20030;-67
2023/02/28 05:46:05;;;;;;;1.45;0.50;;;15.80;66.50;;;;;;4991887;28;20017;-67
2023/02/28 05:48:32;;;;;;;0.80;0.60;;;15.80;66.30;;;;;;4992937;28;20022;-67
2023/02/28 05:50:58;;;;;;;0.55;0.55;;;15.90;66.40;;;;;;4992046;28;20080;-67
2023/02/28 05:53:24;;;;;;;1.83;0.60;;;15.80;66.30;;;;;;4991523;28;20022;-67
2023/02/28 05:55:49;;;;;;;1.23;0.57;;;15.80;66.30;;;;;;4993147;28;20116;-67
2023/02/28 05:58:15;;;;;;;0.75;0.55;;;15.80;66.30;;;;;;4992991;28;20030;-67
2023/02/28 06:00:40;;;;;;;1.25;0.60;;;15.80;66.20;;;;;;4992631;28;20030;-68
2023/02/28 06:03:06;;;;;;;1.45;0.80;;;15.80;66.30;;;;;;4993055;28;20029;-67
2023/02/28 06:05:32;;;;;;;0.70;0.70;;;15.80;66.20;;;;;;4995047;28;20037;-67
2023/02/28 06:07:58;;;;;;;0.55;0.50;;;15.90;66.30;;;;;;4996663;28;20053;-67
2023/02/28 06:10:24;;;;;;;0.70;0.60;;;15.80;66.20;;;;;;4996913;28;20060;-67
2023/02/28 06:12:49;;;;;;;1.25;0.50;;;15.80;66.20;;;;;;4996580;28;20083;-67
2023/02/28 06:15:16;;;;;;;0.90;0.57;;;15.80;66.20;;;;;;4996808;28;20151;-67
2023/02/28 06:17:42;;;;;;;1.33;0.60;;;15.80;66.20;;;;;;4995592;28;20030;-67
2023/02/28 06:20:09;;;;;;;0.77;0.68;;;15.80;66.20;;;;;;4995261;28;20030;-67
2023/02/28 06:22:36;;;;;;;0.82;0.50;;;15.80;66.20;;;;;;4994866;28;20133;-67
2023/02/28 06:25:02;;;;;;;0.95;0.60;;;15.80;66.20;;;;;;4995647;28;20101;-67
2023/02/28 06:27:28;;;;;;;0.75;0.68;;;15.80;66.10;;;;;;4995361;28;20014;-67
2023/02/28 06:29:54;;;;;;;1.17;0.70;;;15.80;66.20;;;;;;4995446;28;20384;-67
2023/02/28 06:32:20;;;;;;;1.73;1.23;;;15.80;66.20;;;;;;4995185;28;20050;-67
2023/02/28 06:34:45;;;;;;;0.98;0.75;;;15.80;66.00;;;;;;4996367;28;20066;-67
2023/02/28 06:37:11;;;;;;;0.70;0.70;;;15.80;66.00;;;;;;4996180;28;20133;-67
2023/02/28 06:39:37;;;;;;;0.73;0.50;;;15.80;66.00;;;;;;4996102;28;20030;-67
2023/02/28 06:42:02;;;;;;;0.75;0.75;;;15.80;66.00;;;;;;4995239;28;20023;-67
2023/02/28 06:44:34;;;;;;;1.05;0.57;;;15.80;66.00;;;;;;4995138;28;20112;-67
2023/02/28 06:47:05;;;;;;;0.77;0.70;;;15.80;66.00;;;;;;4996243;28;20025;-67
2023/02/28 06:49:32;;;;;;;1.40;0.63;;;15.80;66.00;;;;;;4979325;28;20416;-67
2023/02/28 06:51:58;;;;;;;0.98;0.70;;;15.80;66.00;;;;;;4995758;28;20031;-67
2023/02/28 06:54:23;;;;;;;1.60;0.60;;;15.80;66.00;;;;;;4996001;28;20026;-67
2023/02/28 06:56:49;;;;;;;0.70;0.70;;;15.80;66.00;;;;;;4996015;28;20029;-67
2023/02/28 06:59:15;;;;;;;1.13;0.80;;;15.80;65.90;;;;;;4995924;28;20400;-67
2023/02/28 07:01:41;;;;;;;1.70;0.90;;;15.80;65.90;;;;;;4994353;28;20404;-67
2023/02/28 07:04:06;;;;;;;0.75;0.70;;;15.80;65.90;;;;;;4995757;28;20030;-67
2023/02/28 07:06:32;;;;;;;0.88;0.73;;;15.80;65.90;;;;;;4978120;28;20026;-67
2023/02/28 07:08:58;;;;;;;1.70;0.82;;;15.80;65.90;;;;;;4995880;28;20019;-67
2023/02/28 07:11:25;;;;;;;0.80;0.80;;;15.80;65.90;;;;;;4995805;28;20459;-67
2023/02/28 07:13:51;;;;;;;2.08;0.73;;;15.80;65.90;;;;;;4995596;28;20030;-68
2023/02/28 07:16:17;;;;;;;0.60;0.60;;;15.80;65.80;;;;;;4993393;28;20515;-67
2023/02/28 07:18:43;;;;;;;1.35;0.90;;;15.80;65.90;;;;;;4995419;28;20022;-67
2023/02/28 07:21:09;;;;;;;0.70;0.60;;;15.80;65.80;;;;;;4995109;28;20023;-67
2023/02/28 07:23:35;;;;;;;1.25;0.80;;;15.80;65.80;;;;;;4995578;28;20032;-67
2023/02/28 07:26:01;;;;;;;2.83;0.95;;;15.80;65.80;;;;;;4994385;28;20022;-67
2023/02/28 07:28:26;;;;;;;1.40;0.80;;;15.80;65.80;;;;;;4995293;28;20027;-67
2023/02/28 07:30:52;;;;;;;0.70;0.70;;;15.80;65.80;;;;;;4995322;28;20036;-67
2023/02/28 07:33:18;;;;;;;0.60;0.60;;;15.80;65.70;;;;;;4995252;28;20026;-67
2023/02/28 07:35:43;;;;;;;0.77;0.70;;;15.80;65.70;;;;;;4994998;28;20030;-67
2023/02/28 07:38:09;;;;;;;0.77;0.50;;;15.80;65.70;;;;;;4993996;28;20029;-67
2023/02/28 07:40:35;;;;;;;1.33;0.80;;;15.80;65.70;;;;;;4995040;28;20393;-67
2023/02/28 07:43:01;;;;;;;0.70;0.70;;;15.80;65.70;;;;;;4994059;28;20433;-67
2023/02/28 07:45:28;;;;;;;0.90;0.77;;;15.80;65.70;;;;;;4995066;28;20024;-67
2023/02/28 07:47:54;;;;;;;0.60;0.60;;;15.80;65.70;;;;;;4993781;28;20081;-67
2023/02/28 07:50:20;;;;;;;0.70;0.70;;;15.80;65.70;;;;;;4993635;28;20030;-67
2023/02/28 07:52:45;;;;;;;1.15;0.80;;;15.80;65.70;;;;;;4994802;28;20030;-67
2023/02/28 07:55:11;;;;;;;0.80;0.80;;;15.80;65.70;;;;;;4994928;28;20436;-67
2023/02/28 07:57:37;;;;;;;0.85;0.70;;;15.80;65.70;;;;;;4995026;28;20023;-67
2023/02/28 08:00:07;;;;;;;1.58;0.75;;;15.80;65.60;;;;;;4994477;28;20039;-67
2023/02/28 08:02:33;;;;;;;0.60;0.60;;;15.80;65.60;;;;;;4993600;28;20026;-67
2023/02/28 08:04:59;;;;;;;0.88;0.70;;;15.80;65.70;;;;;;4994652;28;20023;-67
2023/02/28 08:07:25;;;;;;;0.85;0.80;;;15.80;65.60;;;;;;4977343;28;20384;-67
2023/02/28 08:09:50;;;;;;;1.65;0.90;;;15.80;65.70;;;;;;4994543;28;20108;-67
2023/02/28 08:12:16;;;;;;;0.65;0.65;;;15.80;65.60;;;;;;4993342;28;20022;-67
2023/02/28 08:14:42;;;;;;;1.20;0.70;;;15.80;65.60;;;;;;4993270;28;20030;-67
2023/02/28 08:17:08;;;;;;;0.82;0.70;;;15.80;65.70;;;;;;4994590;28;20052;-67
2023/02/28 08:19:34;;;;;;;2.38;0.88;;;15.80;65.70;;;;;;4992955;28;20477;-67
2023/02/28 08:22:00;;;;;;;0.60;0.60;;;15.80;65.60;;;;;;4994090;28;20044;-67
2023/02/28 08:24:25;;;;;;;0.93;0.80;;;15.80;65.70;;;;;;4994462;28;20027;-67
2023/02/28 08:26:51;;;;;;;0.70;0.70;;;15.80;65.70;;;;;;4994175;28;20401;-67
2023/02/28 08:29:16;;;;;;;0.75;0.70;;;15.80;65.70;;;;;;4994278;28;20061;-67
2023/02/28 08:31:42;;;;;;;1.00;0.80;;;15.80;65.60;;;;;;4994177;28;20026;-67
2023/02/28 08:34:09;;;;;;;0.60;0.60;;;15.80;65.60;;;;;;4992746;28;20077;-67
2023/02/28 08:36:35;;;;;;;1.05;0.80;;;15.80;65.70;;;;;;4994140;28;20105;-67
2023/02/28 08:39:01;;;;;;;1.10;1.00;;;15.80;65.60;;;;;;4993029;28;20109;-67
2023/02/28 08:41:26;;;;;;;1.70;0.70;;;15.80;65.60;;;;;;4992724;28;20023;-67
2023/02/28 08:43:53;;;;;;;0.60;0.60;;;15.80;65.70;;;;;;4993795;28;20026;-67
2023/02/28 08:46:19;;;;;;;1.50;0.57;;;15.80;65.60;;;;;;4992874;28;20046;-67
2023/02/28 08:48:45;;;;;;;0.60;0.60;;;15.80;65.60;;;;;;4992395;28;20508;-67
2023/02/28 08:51:16;;;;;;;1.35;0.65;;;15.80;65.60;;;;;;4993888;28;20102;-67
2023/02/28 08:53:41;;;;;;;0.80;0.63;;;15.80;65.60;;;;;;4992583;28;20052;-67
2023/02/28 08:56:08;;;;;;;0.60;0.60;;;15.80;65.60;;;;;;4993979;28;20054;-67
2023/02/28 08:58:34;;;;;;;1.85;0.80;;;15.80;65.60;;;;;;4993622;28;20120;-67
2023/02/28 09:01:00;;;;;;;0.93;0.60;;;15.80;65.70;;;;;;4992169;28;20113;-67
2023/02/28 09:03:26;;;;;;;1.42;0.60;;;15.80;65.70;;;;;;4992297;28;20053;-67
2023/02/28 09:05:56;;;;;;;0.88;0.57;;;15.80;65.60;;;;;;4993573;28;20435;-67
2023/02/28 09:08:23;;;;;;;0.50;0.50;;;15.80;65.70;;;;;;4993606;28;20026;-67
2023/02/28 09:10:48;;;;;;;0.50;0.50;;;15.80;65.70;;;;;;4992262;28;20027;-67
2023/02/28 09:13:14;;;;;;;0.70;0.60;;;15.80;65.70;;;;;;4993309;28;20028;-67
2023/02/28 09:15:40;;;;;;;0.98;0.77;;;15.80;65.70;;;;;;4993571;28;20023;-67
2023/02/28 09:18:05;;;;;;;0.70;0.60;;;15.80;65.70;;;;;;4993501;28;20058;-67
2023/02/28 09:20:31;;;;;;;0.65;0.50;;;15.80;65.70;;;;;;4993108;28;20022;-67
2023/02/28 09:22:56;;;;;;;0.60;0.60;;;15.80;65.70;;;;;;4993170;28;20050;-67
2023/02/28 09:25:22;;;;;;;0.85;0.50;;;15.80;65.70;;;;;;4993237;28;20029;-67
2023/02/28 09:27:48;;;;;;;0.50;0.50;;;15.80;65.70;;;;;;4992136;28;20492;-67
2023/02/28 09:30:14;;;;;;;0.68;0.50;;;15.80;65.80;;;;;;4991781;28;20429;-67
2023/02/28 09:32:39;;;;;;;0.80;0.50;;;15.80;65.80;;;;;;4993544;28;20034;-67
2023/02/28 09:35:05;;;;;;;1.02;0.63;;;15.80;65.80;;;;;;4993253;28;20096;-67
2023/02/28 09:37:31;;;;;;;0.50;0.50;;;15.80;65.70;;;;;;4993067;28;20439;-67
2023/02/28 09:39:57;;;;;;;0.38;0.38;;;15.80;65.70;;;;;;4991406;28;20026;-67
2023/02/28 09:42:28;;;;;;;0.75;0.50;;;15.80;65.80;;;;;;4993293;28;20030;-67
2023/02/28 09:44:54;;;;;;;0.55;0.50;;;15.80;65.80;;;;;;4991575;28;20027;-67
2023/02/28 09:47:42;;;;;;;0.75;0.40;;;15.80;65.80;;;;;;4993261;28;20073;-67
2023/02/28 09:50:32;;;;;;;0.52;0.40;;;15.80;65.80;;;;;;4991941;28;20018;-67
2023/02/28 09:52:58;;;;;;;0.50;0.50;;;15.80;65.90;;;;;;4992959;28;20050;-67
2023/02/28 09:55:30;;;;;;;0.40;0.40;;;15.80;65.90;;;;;;4993105;28;20022;-67
2023/02/28 09:57:59;;;;;;;0.70;0.50;;;15.80;65.90;;;;;;4991824;28;20031;-67
2023/02/28 10:00:39;;;;;;;1.27;0.63;;;15.80;65.80;;;;;;4992702;28;20042;-67
2023/02/28 10:03:26;;;;;;;0.88;0.57;;;15.80;65.90;;;;;;4976714;28;20022;-66
2023/02/28 10:06:10;;;;;;;0.93;0.50;;;15.80;65.90;;;;;;4992866;28;20023;-67
2023/02/28 10:09:05;;;;;;;0.40;0.40;;;15.80;65.90;;;;;;4992776;28;20034;-67
2023/02/28 10:11:32;;;;;;;0.75;0.30;;;15.80;65.90;;;;;;4996430;28;20726;-67
2023/02/28 10:14:14;;;;;;;0.60;0.35;;;15.80;65.90;;;;;;4992470;28;20030;-67
2023/02/28 10:16:47;;;;;;;0.60;0.43;;;15.80;65.90;;;;;;4992910;28;20096;-67
2023/02/28 10:19:39;;;;;;;0.30;0.30;;;15.80;65.90;;;;;;4991663;28;20022;-67
2023/02/28 10:22:24;;;;;;;0.30;0.30;;;15.80;65.90;;;;;;5009885;28;20192;-67
2023/02/28 10:24:51;;;;;;;0.75;0.50;;;15.80;65.90;;;;;;5024282;28;20415;-67
2023/02/28 10:27:21;;;;;;;1.05;0.68;;;15.80;65.90;;;;;;5026781;28;20042;-67
2023/02/28 10:29:51;;;;;;;0.45;0.45;;;15.80;66.90;;;;;;5025890;28;20076;-67
2023/02/28 10:32:18;;;;;;;0.40;0.30;;;15.80;65.90;;;;;;5009652;28;20044;-67
2023/02/28 10:34:44;;;;;;;0.50;0.50;;;15.80;65.90;;;;;;5026501;28;20037;-67
2023/02/28 10:37:11;;;;;;;0.80;0.40;;;15.80;65.90;;;;;;5026660;28;20034;-67
2023/02/28 10:39:46;;;;;;;0.50;0.43;;;15.80;65.90;;;;;;5009810;28;20508;-67
2023/02/28 10:42:25;;;;;;;1.20;0.43;;;15.80;65.90;;;;;;5010259;28;20058;-67
2023/02/28 10:45:04;;;;;;;0.70;0.30;;;15.80;65.90;;;;;;5009467;28;20558;-67
2023/02/28 10:47:30;;;;;;;0.32;0.32;;;15.80;65.90;;;;;;5009813;28;20049;-67
2023/02/28 10:49:56;;;;;;;1.73;0.60;;;15.80;67.00;;;;;;5026240;28;20082;-67
2023/02/28 10:52:41;;;;;;;0.30;0.30;;;15.80;65.90;;;;;;5011828;28;20069;-67
2023/02/28 10:55:24;;;;;;;0.50;0.43;;;15.80;65.90;;;;;;5013107;28;20022;-67
2023/02/28 10:57:50;;;;;;;1.25;0.50;;;15.80;65.90;;;;;;5028417;28;20029;-67
2023/02/28 11:00:19;;;;;;;0.30;0.30;;;15.80;65.90;;;;;;4994551;28;20117;-67
2023/02/28 11:02:46;;;;;;;0.28;0.28;;;15.80;65.90;;;;;;4994636;28;20026;-67
2023/02/28 11:05:25;;;;;;;0.45;0.40;;;15.80;65.90;;;;;;4994770;28;20029;-67
2023/02/28 11:07:54;;;;;;;1.05;0.50;;;15.80;66.00;;;;;;4994616;28;20102;-67
2023/02/28 11:10:21;;;;;;;0.22;0.22;;;15.80;65.90;;;;;;4994796;28;20504;-67
2023/02/28 11:12:47;;;;;;;0.40;0.40;;;15.80;65.90;;;;;;4994037;28;20097;-67
2023/02/28 11:15:27;;;;;;;0.50;0.47;;;15.80;65.90;;;;;;4994551;28;20477;-67
2023/02/28 11:17:58;;;;;;;1.17;0.40;;;15.80;65.90;;;;;;4994443;28;20388;-67
2023/02/28 11:20:25;;;;;;;0.40;0.40;;;15.80;66.00;;;;;;4994416;28;20019;-67
2023/02/28 11:22:50;;;;;;;0.50;0.50;;;15.90;66.00;;;;;;4993981;28;20096;-67
2023/02/28 11:25:30;;;;;;;0.43;0.38;;;15.80;65.90;;;;;;4994438;28;20038;-67
2023/02/28 11:27:57;;;;;;;0.73;0.50;;;15.80;65.90;;;;;;4993900;28;20064;-67
2023/02/28 11:30:34;;;;;;;0.30;0.20;;;15.80;65.90;;;;;;4995467;28;20058;-67
2023/02/28 11:33:01;;;;;;;1.30;0.40;;;15.90;66.00;;;;;;4994234;28;20022;-67
2023/02/28 11:35:30;;;;;;;0.70;0.43;;;15.80;65.90;;;;;;4994098;28;20385;-67
2023/02/28 11:37:56;;;;;;;0.93;0.45;;;15.80;66.00;;;;;;4993975;28;20030;-67
2023/02/28 11:40:34;;;;;;;0.50;0.50;;;15.80;67.00;;;;;;4994133;28;20101;-67
2023/02/28 11:43:12;;;;;;;0.68;0.30;;;15.90;66.00;;;;;;4995021;28;20109;-67
2023/02/28 11:46:14;;;;;;;0.50;0.50;;;15.80;65.90;;;;;;4994029;28;20081;-67
2023/02/28 11:48:50;;;;;;;0.40;0.40;;;15.80;65.90;;;;;;4993897;28;20035;-67
2023/02/28 11:51:32;;;;;;;0.82;0.38;;;15.80;65.90;;;;;;4993900;28;20030;-67
2023/02/28 11:54:22;;;;;;;0.32;0.30;;;15.80;65.90;;;;;;4993714;28;20076;-67
2023/02/28 11:56:58;;;;;;;0.52;0.40;;;15.80;65.90;;;;;;4994796;28;20046;-67
2023/02/28 11:59:39;;;;;;;0.38;0.32;;;15.80;65.90;;;;;;4993655;28;20109;-67
2023/02/28 12:02:34;;;;;;;1.05;0.50;;;15.90;66.00;;;;;;4975001;28;20089;-67
2023/02/28 12:05:23;;;;;;;0.22;0.22;;;15.80;65.90;;;;;;4974125;28;20051;-67
2023/02/28 12:07:48;;;;;;;0.40;0.35;;;15.90;66.00;;;;;;4974358;28;20027;-67
2023/02/28 12:10:21;;;;;;;0.50;0.40;;;15.90;65.90;;;;;;4975050;28;20041;-67
2023/02/28 12:12:50;;;;;;;0.77;0.47;;;15.80;65.90;;;;;;4977818;28;20076;-67
2023/02/28 12:15:50;;;;;;;0.32;0.30;;;15.80;65.90;;;;;;4993107;28;20487;-67
2023/02/28 12:18:33;;;;;;;0.30;0.30;;;15.90;65.90;;;;;;4994642;28;20026;-67
2023/02/28 12:21:07;;;;;;;0.50;0.50;;;15.90;65.90;;;;;;4994201;28;20035;-67
2023/02/28 12:23:57;;;;;;;0.40;0.40;;;15.90;66.00;;;;;;4993241;28;20034;-67
2023/02/28 12:26:29;;;;;;;0.47;0.47;;;15.90;65.90;;;;;;4994142;28;20361;-67
2023/02/28 12:29:16;;;;;;;0.68;0.40;;;15.90;65.90;;;;;;4994410;28;20504;-67
2023/02/28 12:31:53;;;;;;;0.98;0.50;;;15.90;65.90;;;;;;4993361;28;20041;-67
2023/02/28 12:34:22;;;;;;;0.55;0.40;;;15.90;65.80;;;;;;4993282;28;20481;-67
2023/02/28 12:36:48;;;;;;;0.47;0.47;;;15.90;65.80;;;;;;4992756;28;20488;-67
2023/02/28 12:39:23;;;;;;;0.40;0.40;;;15.90;65.80;;;;;;4992661;28;20041;-67
2023/02/28 12:41:53;;;;;;;0.40;0.40;;;15.90;65.80;;;;;;4992728;28;20022;-67
2023/02/28 12:44:30;;;;;;;0.40;0.40;;;15.90;65.90;;;;;;4992964;28;20029;-67
2023/02/28 12:47:00;;;;;;;1.27;0.38;;;15.90;65.90;;;;;;4993801;28;20022;-67
2023/02/28 12:49:33;;;;;;;0.50;0.50;;;15.90;65.90;;;;;;4992777;28;20026;-67
2023/02/28 12:52:00;;;;;;;1.10;0.52;;;15.90;65.80;;;;;;4993630;28;20034;-67
2023/02/28 12:54:31;;;;;;;0.40;0.40;;;15.90;65.80;;;;;;4992601;28;20109;-67
2023/02/28 12:57:06;;;;;;;0.30;0.30;;;15.90;65.80;;;;;;4992613;28;20496;-67
2023/02/28 12:59:38;;;;;;;0.30;0.30;;;15.90;65.90;;;;;;4993611;28;20065;-67
2023/02/28 13:02:28;;;;;;;0.45;0.40;;;15.90;65.90;;;;;;4993253;28;20494;-67